Time;durP1;ratioP1;P1;durP2;ratioP2;P2;SDS_P1;SDS_P2;PMS_P1;PMS_P2;Temp;Humidity;BMP_temperature;BMP_pressure;BME280_temperature;BME280_humidity;BME280_pressure;Samples;Min_cycle;Max_cycle;Signal;HPM_P1;HPM_P2
2023/03/03 00:01:25;;;;;;;32.13;18.00;;;;;;;2.37;66.57;99801.94;6149950;23;20506;-79
2023/03/03 00:03:52;;;;;;;30.77;17.45;;;;;;;2.28;66.63;99791.81;6150053;23;20108;-79
2023/03/03 00:06:18;;;;;;;29.33;18.13;;;;;;;2.19;66.65;99798.94;6150456;23;20205;-79
2023/03/03 00:08:44;;;;;;;32.28;15.95;;;;;;;2.12;67.06;99801.75;6150658;23;20760;-79
2023/03/03 00:11:10;;;;;;;35.63;18.87;;;;;;;2.04;67.06;99806.28;6151009;23;20179;-79
2023/03/03 00:13:47;;;;;;;31.00;20.57;;;;;;;1.97;67.27;99800.38;6150469;23;20257;-79
2023/03/03 00:16:23;;;;;;;22.73;15.82;;;;;;;1.95;67.47;99792.66;6151588;23;20905;-79
2023/03/03 00:18:48;;;;;;;30.65;16.17;;;;;;;1.94;67.26;99803.06;6148734;23;20273;-80
2023/03/03 00:21:31;;;;;;;29.07;18.10;;;;;;;1.93;67.29;99804.78;6151530;23;20186;-80
2023/03/03 00:24:15;;;;;;;23.30;15.52;;;;;;;1.88;67.14;99803.22;6149163;23;20697;-80
2023/03/03 00:26:44;;;;;;;33.25;17.45;;;;;;;1.83;67.16;99808.50;6125122;23;20478;-80
2023/03/03 00:29:27;;;;;;;35.22;18.20;;;;;;;1.83;67.36;99811.09;6150803;23;20175;-80
2023/03/03 00:31:53;;;;;;;31.17;18.15;;;;;;;1.82;67.27;99804.22;6125122;23;20705;-80
2023/03/03 00:34:23;;;;;;;40.25;22.58;;;;;;;1.82;67.39;99812.00;6145067;23;20515;-80
2023/03/03 00:36:53;;;;;;;28.92;18.08;;;;;;;1.84;67.56;99809.38;6153349;23;20218;-82
2023/03/03 00:39:30;;;;;;;35.55;19.75;;;;;;;1.88;67.71;99814.41;6128832;23;20519;-81
2023/03/03 00:41:59;;;;;;;34.30;20.88;;;;;;;1.90;67.30;99817.81;6153949;23;20183;-81
2023/03/03 00:44:43;;;;;;;37.35;20.25;;;;;;;1.91;67.59;99808.31;6154211;23;20229;-80
2023/03/03 00:47:34;;;;;;;28.48;18.42;;;;;;;1.89;67.50;99812.66;6154739;23;20656;-80
2023/03/03 00:50:05;;;;;;;34.42;19.77;;;;;;;1.87;67.31;99814.47;6128969;23;20179;-80
2023/03/03 00:52:40;;;;;;;30.77;16.95;;;;;;;1.85;67.56;99816.25;6128859;23;20193;-89
2023/03/03 00:55:06;;;;;;;29.65;16.10;;;;;;;1.82;67.36;99816.31;6154407;23;20170;-85
2023/03/03 00:57:32;;;;;;;30.00;18.63;;;;;;;1.76;67.81;99810.41;6157213;23;20488;-82
2023/03/03 00:59:58;;;;;;;31.27;17.30;;;;;;;1.73;67.74;99814.81;6129862;23;20241;-83
2023/03/03 01:02:23;;;;;;;34.67;19.00;;;;;;;1.71;68.00;99822.59;6129011;23;20640;-80
2023/03/03 01:04:51;;;;;;;30.70;17.03;;;;;;;1.72;67.72;99819.13;6156212;23;20437;-80
2023/03/03 01:07:17;;;;;;;29.10;16.15;;;;;;;1.75;68.11;99821.63;6157440;23;20712;-80
2023/03/03 01:09:42;;;;;;;28.53;18.23;;;;;;;1.79;67.65;99816.41;6154396;23;20179;-78
2023/03/03 01:12:09;;;;;;;29.17;17.30;;;;;;;1.83;67.68;99821.44;6148452;23;20877;-79
2023/03/03 01:14:35;;;;;;;36.60;18.67;;;;;;;1.83;67.84;99811.09;6150249;23;20183;-78
2023/03/03 01:17:00;;;;;;;34.47;16.77;;;;;;;1.83;67.72;99813.69;6153893;23;20199;-79
2023/03/03 01:19:25;;;;;;;30.00;16.23;;;;;;;1.84;67.77;99815.41;6124326;23;20214;-78
2023/03/03 01:21:51;;;;;;;29.83;18.37;;;;;;;1.84;67.59;99812.81;6152259;23;20465;-78
2023/03/03 01:24:16;;;;;;;27.20;16.70;;;;;;;1.83;67.74;99816.25;6153002;23;20582;-78
2023/03/03 01:26:42;;;;;;;32.37;17.30;;;;;;;1.82;67.81;99814.56;6152078;23;20234;-78
2023/03/03 01:29:08;;;;;;;24.13;15.43;;;;;;;1.78;67.83;99805.16;6150452;23;20746;-77
2023/03/03 01:31:34;;;;;;;24.50;15.40;;;;;;;1.73;68.10;99804.47;6151186;23;20509;-77
2023/03/03 01:33:59;;;;;;;20.73;13.57;;;;;;;1.69;68.10;99803.66;6153160;23;20593;-77
2023/03/03 01:36:27;;;;;;;24.40;15.73;;;;;;;1.60;68.05;99803.88;6126152;23;20418;-78
2023/03/03 01:38:53;;;;;;;25.88;15.45;;;;;;;1.53;68.28;99798.00;6152501;23;20175;-78
2023/03/03 01:41:19;;;;;;;30.90;15.53;;;;;;;1.50;68.24;99810.16;6124906;23;20183;-77
2023/03/03 01:43:47;;;;;;;38.45;17.08;;;;;;;1.49;68.35;99809.31;6124575;23;20207;-78
2023/03/03 01:46:18;;;;;;;31.83;16.10;;;;;;;1.50;68.81;99805.84;6152194;23;20179;-78
2023/03/03 01:48:45;;;;;;;35.38;19.65;;;;;;;1.52;68.65;99806.66;6145032;23;20218;-79
2023/03/03 01:51:31;;;;;;;26.60;16.50;;;;;;;1.55;68.53;99806.59;6151350;23;20178;-77
2023/03/03 01:54:00;;;;;;;32.40;17.00;;;;;;;1.58;68.88;99799.63;6150769;23;20402;-78
2023/03/03 01:56:26;;;;;;;31.88;16.17;;;;;;;1.60;68.68;99798.72;6150258;23;20221;-79
2023/03/03 01:58:57;;;;;;;28.10;15.30;;;;;;;1.65;68.52;99796.88;6125996;23;20182;-78
2023/03/03 02:01:26;;;;;;;27.27;14.40;;;;;;;1.71;68.27;99794.13;6154578;23;20483;-78
2023/03/03 02:03:52;;;;;;;29.55;17.25;;;;;;;1.77;68.41;99798.28;6125632;23;20175;-78
2023/03/03 02:06:22;;;;;;;33.07;15.90;;;;;;;1.81;68.15;99796.47;6152437;23;20179;-78
2023/03/03 02:08:54;;;;;;;37.15;19.35;;;;;;;1.83;68.11;99792.97;6151990;23;20413;-78
2023/03/03 02:11:21;;;;;;;29.20;16.77;;;;;;;1.88;67.94;99801.47;6153385;23;20175;-77
2023/03/03 02:13:47;;;;;;;42.72;17.33;;;;;;;1.91;67.91;99797.94;6151314;23;20171;-78
2023/03/03 02:16:12;;;;;;;31.87;17.63;;;;;;;1.90;67.70;99791.09;6125883;23;20249;-78
2023/03/03 02:18:38;;;;;;;33.40;16.60;;;;;;;1.86;68.09;99774.75;6125466;23;20522;-78
2023/03/03 02:21:16;;;;;;;26.13;15.98;;;;;;;1.75;68.33;99787.97;6109308;23;20626;-73
2023/03/03 02:23:51;;;;;;;22.73;15.95;;;;;;;1.63;68.36;99787.44;6102341;23;20302;-78
2023/03/03 02:26:21;;;;;;;33.30;16.75;;;;;;;1.53;68.47;99797.16;6127657;23;20179;-78
2023/03/03 02:28:48;;;;;;;31.95;16.42;;;;;;;1.41;68.54;99790.53;6098107;23;20203;-75
2023/03/03 02:31:19;;;;;;;29.00;16.20;;;;;;;1.37;68.98;99788.88;6099661;23;20187;-76
2023/03/03 02:33:49;;;;;;;32.67;21.70;;;;;;;1.36;69.12;99786.34;6097849;23;20425;-78
2023/03/03 02:36:17;;;;;;;32.17;17.92;;;;;;;1.32;69.77;99775.19;6126139;23;20627;-79
2023/03/03 02:39:09;;;;;;;41.42;22.80;;;;;;;1.32;69.30;99777.78;6100263;23;20263;-76
2023/03/03 02:41:54;;;;;;;29.92;14.13;;;;;;;1.32;69.24;99783.84;6120384;23;20510;-76
2023/03/03 02:44:28;;;;;;;33.03;15.80;;;;;;;1.34;69.11;99781.19;6103415;23;20208;-78
2023/03/03 02:46:55;;;;;;;38.15;18.73;;;;;;;1.37;69.14;99781.13;6125671;23;20179;-77
2023/03/03 02:49:26;;;;;;;28.13;18.17;;;;;;;1.40;68.84;99775.88;6096109;23;20203;-78
2023/03/03 02:51:53;;;;;;;35.67;18.40;;;;;;;1.43;68.68;99775.81;6101908;23;20626;-78
2023/03/03 02:54:21;;;;;;;31.52;16.88;;;;;;;1.44;68.86;99771.50;6100288;23;20239;-79
2023/03/03 02:56:46;;;;;;;34.17;16.00;;;;;;;1.45;68.71;99761.09;6100230;23;20234;-75
2023/03/03 02:59:12;;;;;;;27.20;16.53;;;;;;;1.44;68.43;99761.97;6103915;23;20219;-79
2023/03/03 03:01:42;;;;;;;39.70;17.00;;;;;;;1.42;68.74;99766.34;6102523;23;20266;-79
2023/03/03 03:04:14;;;;;;;27.92;17.67;;;;;;;1.43;68.76;99768.06;6097879;23;20195;-77
2023/03/03 03:06:42;;;;;;;32.13;16.38;;;;;;;1.42;68.79;99768.94;6102975;23;20210;-79
2023/03/03 03:09:10;;;;;;;37.38;17.35;;;;;;;1.40;68.78;99770.69;6103125;23;20478;-78
2023/03/03 03:11:36;;;;;;;36.45;17.08;;;;;;;1.41;68.74;99771.56;6102089;23;20615;-77
2023/03/03 03:14:04;;;;;;;29.42;17.08;;;;;;;1.40;68.54;99769.84;6103800;23;20655;-78
2023/03/03 03:16:31;;;;;;;31.40;16.88;;;;;;;1.37;68.81;99770.78;6104426;23;20180;-78
2023/03/03 03:18:58;;;;;;;27.25;16.50;;;;;;;1.32;68.65;99768.31;6125941;23;20211;-76
2023/03/03 03:21:24;;;;;;;29.33;17.00;;;;;;;1.27;68.67;99770.16;6106887;23;20199;-78
2023/03/03 03:23:50;;;;;;;34.37;18.47;;;;;;;1.26;68.83;99770.19;6133455;23;20231;-79
2023/03/03 03:26:16;;;;;;;30.47;15.40;;;;;;;1.26;68.78;99773.59;6106274;23;20418;-79
2023/03/03 03:28:42;;;;;;;31.55;15.15;;;;;;;1.27;68.83;99772.75;6104027;23;20206;-77
2023/03/03 03:31:08;;;;;;;31.93;14.93;;;;;;;1.28;68.85;99783.94;6127290;23;20176;-77
2023/03/03 03:33:34;;;;;;;29.05;16.40;;;;;;;1.24;68.88;99783.16;6102727;23;20191;-76
2023/03/03 03:36:00;;;;;;;32.90;15.97;;;;;;;1.23;68.83;99783.19;6105327;23;20211;-78
2023/03/03 03:38:28;;;;;;;34.83;18.85;;;;;;;1.24;69.11;99793.50;6103474;23;20207;-79
2023/03/03 03:40:54;;;;;;;33.13;17.60;;;;;;;1.25;68.76;99791.78;6103416;23;20176;-79
2023/03/03 03:43:20;;;;;;;31.90;17.00;;;;;;;1.24;68.94;99797.81;6101869;23;20183;-78
2023/03/03 03:45:46;;;;;;;26.13;15.63;;;;;;;1.23;68.88;99799.56;6105117;23;21082;-78
2023/03/03 03:48:14;;;;;;;28.70;16.88;;;;;;;1.22;68.88;99797.88;6107226;23;20442;-78
2023/03/03 03:50:40;;;;;;;25.90;14.95;;;;;;;1.21;69.05;99792.72;6106130;23;20187;-76
2023/03/03 03:53:06;;;;;;;31.93;16.50;;;;;;;1.17;69.09;99798.84;6057286;23;20694;-76
2023/03/03 03:55:32;;;;;;;34.13;18.30;;;;;;;1.16;69.02;99797.13;6103835;23;20720;-77
2023/03/03 03:57:57;;;;;;;33.80;17.60;;;;;;;1.10;69.21;99798.13;6107700;23;20286;-78
2023/03/03 04:00:23;;;;;;;22.20;13.10;;;;;;;1.07;69.10;99800.78;6103659;23;20474;-78
2023/03/03 04:02:53;;;;;;;27.88;16.17;;;;;;;1.05;69.25;99800.84;6106940;23;20180;-75
2023/03/03 04:05:19;;;;;;;24.67;15.97;;;;;;;1.01;69.23;99800.94;6105281;23;20182;-78
2023/03/03 04:07:45;;;;;;;35.37;16.37;;;;;;;0.99;69.21;99811.28;6106014;23;20196;-77
2023/03/03 04:10:11;;;;;;;24.77;14.57;;;;;;;0.98;69.30;99813.94;6130967;23;20467;-75
2023/03/03 04:12:38;;;;;;;31.65;16.25;;;;;;;0.99;69.38;99810.44;6107311;23;20185;-77
2023/03/03 04:15:08;;;;;;;25.52;17.10;;;;;;;1.01;69.25;99813.84;6107077;23;20183;-78
2023/03/03 04:17:34;;;;;;;34.28;16.33;;;;;;;1.01;69.18;99809.53;6133965;23;20186;-78
2023/03/03 04:20:01;;;;;;;32.67;17.13;;;;;;;1.02;69.24;99816.38;6131433;23;20204;-78
2023/03/03 04:22:27;;;;;;;29.40;16.70;;;;;;;1.01;69.22;99814.69;6106729;23;20364;-75
2023/03/03 04:24:52;;;;;;;25.90;16.07;;;;;;;0.99;69.46;99816.47;6106329;23;20751;-75
2023/03/03 04:27:18;;;;;;;30.27;13.13;;;;;;;1.00;69.28;99817.31;6106374;23;20226;-78
2023/03/03 04:29:43;;;;;;;25.63;16.67;;;;;;;0.98;69.15;99819.94;6132599;23;20179;-75
2023/03/03 04:32:09;;;;;;;27.53;16.47;;;;;;;0.98;69.15;99819.94;6106272;23;20812;-79
2023/03/03 04:34:36;;;;;;;33.13;17.98;;;;;;;0.96;69.22;99821.69;6106370;23;20191;-79
2023/03/03 04:37:01;;;;;;;28.50;15.90;;;;;;;0.94;69.13;99823.47;6070726;23;20231;-79
2023/03/03 04:39:29;;;;;;;34.80;16.77;;;;;;;0.94;69.31;99818.28;6075840;23;20196;-78
2023/03/03 04:41:55;;;;;;;29.83;16.88;;;;;;;0.91;69.41;99818.34;6076868;23;20180;-78
2023/03/03 04:44:22;;;;;;;27.58;15.32;;;;;;;0.90;69.38;99813.25;6076342;23;20673;-78
2023/03/03 04:46:47;;;;;;;32.77;15.63;;;;;;;0.90;69.33;99819.25;6075511;23;20184;-79
2023/03/03 04:49:13;;;;;;;30.40;16.73;;;;;;;0.89;69.41;99825.28;6073119;23;20436;-77
2023/03/03 04:51:40;;;;;;;31.05;14.60;;;;;;;0.87;69.22;99824.50;6076023;23;20180;-76
2023/03/03 04:54:05;;;;;;;28.67;16.20;;;;;;;0.89;69.08;99820.13;6072958;23;20239;-77
2023/03/03 04:56:31;;;;;;;33.80;16.77;;;;;;;0.87;69.42;99821.91;6075054;23;20616;-77
2023/03/03 04:58:57;;;;;;;26.30;16.17;;;;;;;0.88;69.29;99823.59;6100404;23;20219;-77
2023/03/03 05:01:22;;;;;;;29.08;16.35;;;;;;;0.89;69.15;99830.47;6102307;23;20232;-78
2023/03/03 05:03:48;;;;;;;26.10;14.87;;;;;;;0.90;69.17;99833.94;6075730;23;20207;-76
2023/03/03 05:06:13;;;;;;;28.97;16.57;;;;;;;0.90;68.99;99829.59;6074740;23;20525;-76
2023/03/03 05:08:39;;;;;;;28.47;15.10;;;;;;;0.91;69.21;99831.28;6094994;23;20204;-76
2023/03/03 05:11:05;;;;;;;32.33;16.87;;;;;;;0.89;69.23;99830.47;6092150;23;20184;-78
2023/03/03 05:13:30;;;;;;;26.00;17.23;;;;;;;0.84;69.32;99828.00;6094190;23;20409;-78
2023/03/03 05:15:57;;;;;;;30.73;17.63;;;;;;;0.81;69.22;99827.19;6094060;23;20259;-79
2023/03/03 05:18:23;;;;;;;33.72;17.70;;;;;;;0.80;69.55;99828.06;6093626;23;20232;-76
2023/03/03 05:20:50;;;;;;;31.08;15.48;;;;;;;0.80;69.53;99821.16;6095846;23;20172;-78
2023/03/03 05:23:17;;;;;;;29.75;15.40;;;;;;;0.80;69.57;99825.50;6091782;23;20204;-79
2023/03/03 05:25:42;;;;;;;29.63;15.50;;;;;;;0.80;69.70;99815.16;6095376;23;20247;-76
2023/03/03 05:28:09;;;;;;;34.40;16.97;;;;;;;0.81;69.63;99820.31;6096638;23;20204;-77
2023/03/03 05:30:35;;;;;;;30.98;17.80;;;;;;;0.82;69.69;99827.16;6095892;23;20184;-79
2023/03/03 05:33:01;;;;;;;32.25;15.88;;;;;;;0.86;69.83;99815.88;6094518;23;20180;-75
2023/03/03 05:35:26;;;;;;;44.42;27.38;;;;;;;0.94;69.91;99827.78;6092059;23;20421;-76
2023/03/03 05:37:53;;;;;;;41.07;21.20;;;;;;;0.98;70.13;99829.44;6092574;23;20211;-76
2023/03/03 05:40:19;;;;;;;39.00;20.00;;;;;;;1.03;69.96;99827.63;6070398;23;20263;-76
2023/03/03 05:42:44;;;;;;;36.87;19.77;;;;;;;1.06;69.95;99835.31;6093836;23;20180;-79
2023/03/03 05:45:10;;;;;;;31.97;17.77;;;;;;;1.10;69.64;99830.00;6093802;23;20204;-77
2023/03/03 05:47:36;;;;;;;32.38;18.75;;;;;;;1.16;69.67;99835.94;6095303;23;20527;-76
2023/03/03 05:50:02;;;;;;;36.10;17.67;;;;;;;1.19;69.85;99841.03;6093582;23;20212;-78
2023/03/03 05:52:27;;;;;;;30.98;17.65;;;;;;;1.22;69.23;99838.41;6094074;23;20199;-76
2023/03/03 05:54:53;;;;;;;30.03;17.53;;;;;;;1.22;69.31;99846.19;6093244;23;20385;-76
2023/03/03 05:57:18;;;;;;;26.80;16.70;;;;;;;1.20;69.40;99848.78;6093902;23;20184;-76
2023/03/03 05:59:44;;;;;;;35.40;18.00;;;;;;;1.16;69.74;99852.34;6101890;23;20176;-76
2023/03/03 06:02:09;;;;;;;29.57;18.47;;;;;;;1.09;69.73;99849.03;6093787;23;20610;-77
2023/03/03 06:04:34;;;;;;;26.23;15.67;;;;;;;1.02;70.10;99847.44;6093442;23;20541;-76
2023/03/03 06:07:00;;;;;;;37.07;17.80;;;;;;;0.97;70.19;99849.25;6092663;23;20184;-78
2023/03/03 06:09:25;;;;;;;26.40;13.97;;;;;;;0.91;70.21;99849.41;6094125;23;20345;-77
2023/03/03 06:11:52;;;;;;;31.47;16.60;;;;;;;0.86;70.42;99851.22;6099674;23;20208;-76
2023/03/03 06:14:19;;;;;;;27.67;14.75;;;;;;;0.82;70.30;99844.41;6100086;23;20176;-79
2023/03/03 06:16:46;;;;;;;26.98;15.98;;;;;;;0.84;70.63;99853.00;6093739;23;20615;-77
2023/03/03 06:19:12;;;;;;;36.97;16.85;;;;;;;0.86;70.43;99851.22;6093957;23;20208;-76
2023/03/03 06:22:17;;;;;;;35.43;15.67;;;;;;;0.91;70.40;99854.56;6098205;23;20280;-76
2023/03/03 06:24:51;;;;;;;24.60;15.05;;;;;;;0.96;70.42;99854.47;6099954;23;20553;-76
2023/03/03 06:27:23;;;;;;;59.92;30.73;;;;;;;0.97;70.63;99862.19;6101321;23;20180;-78
2023/03/03 06:30:02;;;;;;;37.25;25.27;;;;;;;0.97;70.45;99869.94;6101446;23;20183;-76
2023/03/03 06:32:31;;;;;;;29.95;18.25;;;;;;;0.99;70.27;99867.34;6099754;23;20176;-78
2023/03/03 06:35:05;;;;;;;39.13;24.48;;;;;;;1.00;70.43;99869.91;6099991;23;20441;-76
2023/03/03 06:37:34;;;;;;;32.20;20.83;;;;;;;1.00;70.58;99875.09;6100149;23;20180;-79
2023/03/03 06:40:11;;;;;;;34.45;21.08;;;;;;;1.02;70.43;99877.63;6100114;23;20184;-77
2023/03/03 06:42:43;;;;;;;40.78;20.17;;;;;;;1.01;70.64;99869.03;6099010;23;20180;-78
2023/03/03 06:45:09;;;;;;;33.55;17.20;;;;;;;1.02;70.71;99877.63;6090304;23;20271;-79
2023/03/03 06:47:35;;;;;;;30.07;16.23;;;;;;;1.03;70.57;99880.19;6089796;23;20187;-77
2023/03/03 06:50:00;;;;;;;32.10;18.33;;;;;;;1.07;70.50;99886.16;6091143;23;21075;-79
2023/03/03 06:52:26;;;;;;;32.80;17.93;;;;;;;1.13;70.52;99886.00;6091201;23;20184;-79
2023/03/03 06:54:54;;;;;;;30.80;16.87;;;;;;;1.18;70.33;99889.38;6066934;23;20184;-79
2023/03/03 06:57:25;;;;;;;35.80;18.67;;;;;;;1.23;70.18;99884.94;6089756;23;20447;-77
2023/03/03 06:59:53;;;;;;;32.92;18.17;;;;;;;1.28;70.24;99890.03;6090480;23;20180;-79
2023/03/03 07:02:20;;;;;;;30.63;17.88;;;;;;;1.31;70.23;99887.38;6091147;23;20597;-77
2023/03/03 07:04:46;;;;;;;41.83;23.42;;;;;;;1.36;70.01;99893.31;6089431;23;20566;-76
2023/03/03 07:07:18;;;;;;;43.93;20.73;;;;;;;1.42;70.30;99902.66;6088661;23;20439;-78
2023/03/03 07:09:45;;;;;;;36.22;20.58;;;;;;;1.49;69.80;99910.28;6092833;23;20491;-77
2023/03/03 07:12:21;;;;;;;30.15;17.50;;;;;;;1.55;69.74;99906.69;6095694;23;20467;-79
2023/03/03 07:15:06;;;;;;;30.50;17.30;;;;;;;1.58;69.87;99910.97;6075932;23;20187;-79
2023/03/03 07:17:33;;;;;;;31.80;17.50;;;;;;;1.61;69.64;99913.47;6097373;23;20545;-79
2023/03/03 07:20:00;;;;;;;40.20;18.67;;;;;;;1.64;69.62;99916.00;6095999;23;20200;-78
2023/03/03 07:22:29;;;;;;;31.42;16.67;;;;;;;1.64;69.75;99903.91;6099896;23;20181;-79
2023/03/03 07:25:00;;;;;;;33.33;19.05;;;;;;;1.69;69.56;99906.38;6098424;23;20549;-79
2023/03/03 07:27:28;;;;;;;35.28;18.65;;;;;;;1.73;69.64;99908.88;6097950;23;20184;-79
2023/03/03 07:30:20;;;;;;;31.77;18.38;;;;;;;1.78;69.51;99911.34;6095911;23;20255;-77
2023/03/03 07:32:47;;;;;;;40.40;23.97;;;;;;;1.85;69.39;99912.06;6083650;23;20430;-77
2023/03/03 07:35:34;;;;;;;35.38;20.13;;;;;;;1.87;69.91;99918.94;6098046;23;20408;-76
2023/03/03 07:37:59;;;;;;;32.40;18.60;;;;;;;1.89;69.95;99917.16;6071507;23;20286;-78
2023/03/03 07:40:41;;;;;;;27.60;17.27;;;;;;;1.91;69.83;99919.69;6096471;23;20186;-79
2023/03/03 07:43:34;;;;;;;38.70;20.55;;;;;;;1.94;69.70;99917.03;6097472;23;20243;-77
2023/03/03 07:46:08;;;;;;;36.35;18.52;;;;;;;1.97;70.08;99923.00;6082110;23;20192;-77
2023/03/03 07:48:36;;;;;;;34.20;19.85;;;;;;;2.01;69.87;99928.13;6094819;23;20203;-78
2023/03/03 07:51:14;;;;;;;37.85;18.30;;;;;;;2.04;69.83;99930.63;6097972;23;20594;-78
2023/03/03 07:53:40;;;;;;;38.40;20.25;;;;;;;2.08;69.71;99934.84;6096521;23;20210;-76
2023/03/03 07:56:35;;;;;;;32.13;19.07;;;;;;;2.15;69.89;99937.25;6095861;23;20583;-79
2023/03/03 07:59:14;;;;;;;30.02;16.63;;;;;;;2.22;69.68;99938.81;6066080;23;20256;-78
2023/03/03 08:01:43;;;;;;;36.33;21.13;;;;;;;2.30;69.58;99941.22;6098047;23;20235;-79
2023/03/03 08:04:23;;;;;;;31.70;21.30;;;;;;;2.34;69.16;99942.84;6092860;23;20265;-79
2023/03/03 08:07:00;;;;;;;40.00;20.90;;;;;;;2.39;69.33;99947.91;6097001;23;20188;-80
2023/03/03 08:09:29;;;;;;;40.13;22.15;;;;;;;2.44;69.60;99948.66;6094554;23;20751;-76
2023/03/03 08:12:12;;;;;;;38.42;19.08;;;;;;;2.51;69.27;99942.44;6093000;23;20528;-78
2023/03/03 08:14:37;;;;;;;38.60;21.25;;;;;;;2.55;69.05;99949.25;6093977;23;20208;-79
2023/03/03 08:17:23;;;;;;;37.40;19.93;;;;;;;2.62;69.13;99942.16;6090843;23;20192;-79
2023/03/03 08:19:50;;;;;;;38.58;20.23;;;;;;;2.70;68.97;99942.81;6096744;23;20682;-78
2023/03/03 08:22:27;;;;;;;31.35;20.23;;;;;;;2.83;68.94;99951.13;6093516;23;20445;-77
2023/03/03 08:24:53;;;;;;;39.13;20.10;;;;;;;2.95;68.54;99943.00;6095507;23;20200;-77
2023/03/03 08:27:18;;;;;;;32.13;19.20;;;;;;;3.05;68.63;99954.84;6095823;23;20495;-77
2023/03/03 08:29:43;;;;;;;37.67;20.27;;;;;;;3.16;68.24;99945.91;6096956;23;20231;-78
2023/03/03 08:32:09;;;;;;;35.13;20.30;;;;;;;3.26;68.33;99942.16;6095933;23;20187;-80
2023/03/03 08:34:34;;;;;;;40.70;24.03;;;;;;;3.35;68.14;99938.44;6097322;23;20448;-77
2023/03/03 08:36:59;;;;;;;35.40;19.67;;;;;;;3.38;68.52;99940.97;6103820;23;20227;-79
2023/03/03 08:39:25;;;;;;;40.47;24.50;;;;;;;3.39;68.30;99945.25;6100618;23;20196;-78
2023/03/03 08:41:50;;;;;;;44.67;23.77;;;;;;;3.44;68.28;99944.22;6094218;23;20619;-77
2023/03/03 08:44:16;;;;;;;35.20;20.53;;;;;;;3.50;68.33;99940.59;6095313;23;20196;-78
2023/03/03 08:46:42;;;;;;;39.57;20.60;;;;;;;3.55;68.53;99941.31;6093777;23;20657;-79
2023/03/03 08:49:08;;;;;;;35.95;22.67;;;;;;;3.62;68.07;99945.44;6092267;23;20196;-79
2023/03/03 08:51:33;;;;;;;38.47;24.10;;;;;;;3.68;68.09;99949.59;6092929;23;20184;-77
2023/03/03 08:53:59;;;;;;;41.67;23.17;;;;;;;3.73;68.11;99947.72;6094887;23;20183;-76
2023/03/03 08:56:24;;;;;;;43.83;24.87;;;;;;;3.81;67.76;99944.88;6095647;23;20897;-78
2023/03/03 08:58:50;;;;;;;54.20;28.07;;;;;;;3.86;67.82;99953.38;6095122;23;20247;-76
2023/03/03 09:01:15;;;;;;;42.97;25.33;;;;;;;3.90;67.82;99944.59;6096117;23;20181;-79
2023/03/03 09:03:42;;;;;;;59.00;27.27;;;;;;;3.96;67.53;99942.66;6096211;23;20200;-78
2023/03/03 09:06:08;;;;;;;41.15;24.17;;;;;;;4.01;67.49;99945.13;6099697;23;20404;-77
2023/03/03 09:08:33;;;;;;;44.67;23.37;;;;;;;4.05;67.17;99944.13;6099981;23;20711;-79
2023/03/03 09:10:59;;;;;;;51.10;25.77;;;;;;;4.09;67.15;99937.94;6101155;23;20388;-76
2023/03/03 09:13:28;;;;;;;50.27;25.83;;;;;;;4.14;67.12;99941.22;6101779;23;20488;-79
2023/03/03 09:15:55;;;;;;;53.47;27.33;;;;;;;4.21;67.08;99940.16;6101713;23;20416;-79
2023/03/03 09:18:35;;;;;;;49.03;26.77;;;;;;;4.29;66.91;99945.06;6097911;23;20231;-77
2023/03/03 09:21:00;;;;;;;41.60;25.88;;;;;;;4.38;66.71;99943.94;6104239;23;20277;-79
2023/03/03 09:23:29;;;;;;;45.33;25.03;;;;;;;4.47;66.58;99938.44;6099488;23;20180;-76
2023/03/03 09:25:56;;;;;;;40.58;26.48;;;;;;;4.55;66.23;99939.03;6079217;23;20188;-76
2023/03/03 09:28:30;;;;;;;47.15;25.48;;;;;;;4.62;66.16;99942.28;6103292;23;20196;-78
2023/03/03 09:31:01;;;;;;;44.60;25.83;;;;;;;4.68;66.20;99946.44;6104421;23;20191;-77
2023/03/03 09:33:28;;;;;;;43.70;24.85;;;;;;;4.76;65.97;99949.63;6103811;23;20181;-79
2023/03/03 09:36:22;;;;;;;49.75;25.23;;;;;;;4.81;65.86;99952.91;6104619;23;20176;-79
2023/03/03 09:38:48;;;;;;;42.53;28.13;;;;;;;4.88;65.62;99954.38;6084846;23;20283;-79
2023/03/03 09:41:51;;;;;;;46.37;27.70;;;;;;;4.94;65.40;99953.31;6100145;23;20224;-79
2023/03/03 09:44:38;;;;;;;48.78;28.40;;;;;;;5.01;65.06;99953.06;6097360;23;20240;-76
2023/03/03 09:47:22;;;;;;;46.92;27.30;;;;;;;5.09;64.97;99952.78;6100561;23;20183;-78
2023/03/03 09:50:23;;;;;;;49.25;27.40;;;;;;;5.19;64.82;99948.94;6094701;23;20184;-78
2023/03/03 09:53:34;;;;;;;42.55;27.23;;;;;;;5.26;64.53;99954.78;6091711;23;20176;-77
2023/03/03 09:56:24;;;;;;;51.85;29.30;;;;;;;5.32;64.14;99950.22;6095354;23;20628;-77
2023/03/03 09:58:49;;;;;;;46.00;29.00;;;;;;;5.40;64.47;99951.66;6098724;23;20220;-77
2023/03/03 10:01:48;;;;;;;47.93;30.20;;;;;;;5.47;64.46;99948.78;6097733;23;20184;-78
2023/03/03 10:04:23;;;;;;;53.00;29.92;;;;;;;5.52;63.93;99949.47;6097380;23;20198;-79
2023/03/03 10:07:07;;;;;;;58.83;31.60;;;;;;;5.59;63.54;99952.69;6099081;23;20191;-76
2023/03/03 10:09:54;;;;;;;49.83;28.30;;;;;;;5.69;63.57;99947.97;6137468;23;20213;-78
2023/03/03 10:12:24;;;;;;;45.38;26.40;;;;;;;5.76;63.44;99950.28;6147957;23;20879;-78
2023/03/03 10:15:21;;;;;;;47.10;28.75;;;;;;;5.84;63.13;99947.41;6149124;23;20612;-80
2023/03/03 10:18:03;;;;;;;50.10;29.27;;;;;;;5.99;62.71;99951.19;6148132;23;20212;-78
2023/03/03 10:23:36;;;;;;;46.70;25.42;;;;;;;6.18;62.32;99948.69;6135304;23;20237;-80
2023/03/03 10:26:16;;;;;;;53.47;30.42;;;;;;;6.30;62.07;99947.38;6153560;23;20562;-79
2023/03/03 10:29:02;;;;;;;39.72;30.52;;;;;;;6.43;61.64;99952.00;6159038;23;20177;-80
2023/03/03 10:31:35;;;;;;;52.78;28.45;;;;;;;6.60;61.42;99945.25;6157269;23;20540;-80
2023/03/03 10:34:36;;;;;;;45.53;28.05;;;;;;;6.80;60.99;99949.63;6160147;23;20183;-80
2023/03/03 10:37:15;;;;;;;47.10;27.85;;;;;;;6.94;60.88;99943.78;6162177;23;20490;-80
2023/03/03 10:40:22;;;;;;;51.72;29.63;;;;;;;7.10;60.33;99942.22;6160574;23;20180;-80
2023/03/03 10:42:50;;;;;;;52.08;28.38;;;;;;;7.20;59.94;99938.28;6120128;23;20249;-80
2023/03/03 10:45:43;;;;;;;42.42;26.38;;;;;;;7.29;59.72;99943.13;6161037;23;20275;-79
2023/03/03 10:48:12;;;;;;;50.47;27.98;;;;;;;7.40;59.31;99945.25;6159356;23;20196;-80
2023/03/03 10:51:18;;;;;;;54.08;29.27;;;;;;;7.49;58.81;99950.03;6160015;23;20174;-80
2023/03/03 10:54:12;;;;;;;36.95;27.40;;;;;;;7.52;58.28;99943.84;6158458;23;20172;-80
2023/03/03 10:56:46;;;;;;;54.85;29.52;;;;;;;7.65;58.21;99944.97;6158567;23;20175;-80
2023/03/03 10:59:18;;;;;;;46.83;29.13;;;;;;;7.84;57.85;99941.50;6160583;23;20180;-80
2023/03/03 11:01:51;;;;;;;51.03;28.10;;;;;;;7.94;57.57;99941.00;6161260;23;20172;-80
2023/03/03 11:04:40;;;;;;;47.60;27.85;;;;;;;8.02;57.31;99945.88;6160188;23;20432;-80
2023/03/03 11:07:14;;;;;;;44.60;29.52;;;;;;;8.08;57.33;99936.88;6162315;23;20187;-80
2023/03/03 11:10:10;;;;;;;43.35;27.35;;;;;;;8.15;56.89;99931.25;6160888;23;20214;-80
2023/03/03 11:12:56;;;;;;;44.17;25.27;;;;;;;8.16;56.76;99929.50;6169584;23;20170;-80
2023/03/03 11:15:54;;;;;;;47.20;24.77;;;;;;;8.20;56.46;99931.88;6159854;23;20179;-80
2023/03/03 11:18:35;;;;;;;43.80;27.02;;;;;;;8.27;56.23;99921.97;6130009;23;20203;-80
2023/03/03 11:21:12;;;;;;;43.83;27.27;;;;;;;8.36;56.11;99924.13;6160637;23;20172;-80
2023/03/03 11:27:36;;;;;;;41.33;23.95;;;;;;;8.57;55.63;99921.41;6158137;23;20186;-80
2023/03/03 11:30:24;;;;;;;48.60;26.67;;;;;;;8.70;55.62;99929.50;6161675;23;20167;-80
2023/03/03 11:33:03;;;;;;;44.40;28.02;;;;;;;8.80;55.07;99914.97;6158383;23;20174;-80
2023/03/03 11:35:35;;;;;;;50.95;32.30;;;;;;;8.86;54.57;99914.69;6158741;23;20550;-80
2023/03/03 11:38:18;;;;;;;51.15;28.60;;;;;;;8.86;54.39;99914.69;6135278;23;20273;-80
2023/03/03 11:40:55;;;;;;;49.28;29.02;;;;;;;8.91;54.30;99917.06;6160815;23;20171;-80
2023/03/03 11:43:28;;;;;;;49.85;27.13;;;;;;;8.97;54.09;99911.50;6159478;23;20246;-80
2023/03/03 11:45:58;;;;;;;51.92;29.48;;;;;;;9.06;54.02;99906.63;6159825;23;20237;-80
2023/03/03 11:48:23;;;;;;;41.60;24.35;;;;;;;9.15;53.65;99905.28;6160857;23;20207;-80
2023/03/03 11:51:01;;;;;;;43.07;27.10;;;;;;;9.21;53.35;99898.91;6161358;23;20179;-81